createdAt,value
2018-08-04T00:00:26.715Z,98626.64
2018-08-04T00:02:54.933Z,98623.88
2018-08-04T00:05:23.145Z,98614.83
2018-08-04T00:07:51.292Z,98612.00
2018-08-04T00:10:21.267Z,98602.97
2018-08-04T00:12:51.502Z,98613.93
2018-08-04T00:15:20.222Z,98617.42
2018-08-04T00:17:49.076Z,98614.33
2018-08-04T00:20:17.475Z,98616.34
2018-08-04T00:22:46.129Z,98614.87
2018-08-04T00:25:14.460Z,98615.10
2018-08-04T00:27:42.646Z,98611.84
2018-08-04T00:30:13.234Z,98613.83
2018-08-04T00:32:42.124Z,98611.66
2018-08-04T00:35:11.126Z,98613.30
2018-08-04T00:37:39.700Z,98610.91
2018-08-04T00:40:10.027Z,98608.70
2018-08-04T00:42:38.343Z,98614.17
2018-08-04T00:45:06.852Z,98617.45
2018-08-04T00:47:35.278Z,98616.34
2018-08-04T00:50:03.804Z,98613.93
2018-08-04T00:52:31.940Z,98615.93
2018-08-04T00:55:00.267Z,98608.75
2018-08-04T00:57:28.846Z,98609.39
2018-08-04T00:59:57.371Z,98608.11
2018-08-04T01:02:25.901Z,98602.23
2018-08-04T01:04:54.146Z,98606.30
2018-08-04T01:07:22.552Z,98604.54
2018-08-04T01:09:50.724Z,98605.14
2018-08-04T01:12:18.850Z,98605.41
2018-08-04T01:14:47.135Z,98603.50
2018-08-04T01:17:15.452Z,98612.61
2018-08-04T01:19:43.610Z,98606.17
2018-08-04T01:22:11.743Z,98606.37
2018-08-04T01:24:40.180Z,98609.34
2018-08-04T01:27:08.498Z,98611.27
2018-08-04T01:29:36.766Z,98609.77
2018-08-04T01:32:04.992Z,98607.09
2018-08-04T01:34:33.666Z,98612.77
2018-08-04T01:37:01.875Z,98597.18
2018-08-04T01:39:30.347Z,98599.34
2018-08-04T01:41:58.795Z,98593.55
2018-08-04T01:44:27.053Z,98601.31
2018-08-04T01:46:55.271Z,98592.98
2018-08-04T01:49:23.490Z,98598.44
2018-08-04T01:51:51.621Z,98594.86
2018-08-04T01:54:19.999Z,98591.50
2018-08-04T01:56:48.307Z,98595.53
2018-08-04T01:59:16.598Z,98594.43
2018-08-04T02:01:45.002Z,98591.31
2018-08-04T02:04:13.283Z,98586.25
2018-08-04T02:06:41.664Z,98589.98
2018-08-04T02:09:11.164Z,98585.48
2018-08-04T02:11:39.446Z,98587.34
2018-08-04T02:14:07.602Z,98587.84
2018-08-04T02:16:35.970Z,98584.91
2018-08-04T02:19:04.156Z,98582.52
2018-08-04T02:21:32.534Z,98586.83
2018-08-04T02:24:00.886Z,98579.11
2018-08-04T02:26:29.124Z,98579.78
2018-08-04T02:28:57.296Z,98584.99
2018-08-04T02:31:25.663Z,98577.67
2018-08-04T02:33:53.976Z,98578.25
2018-08-04T02:36:22.119Z,98581.34
2018-08-04T02:38:50.378Z,98580.20
2018-08-04T02:41:18.654Z,98582.11
2018-08-04T02:43:46.818Z,98582.11
2018-08-04T02:46:15.163Z,98584.59
2018-08-04T02:48:43.519Z,98587.23
2018-08-04T02:51:11.653Z,98579.71
2018-08-04T02:53:39.971Z,98574.34
2018-08-04T02:56:08.185Z,98578.42
2018-08-04T02:58:36.356Z,98570.66
2018-08-04T03:01:04.526Z,98575.82
2018-08-04T03:03:32.862Z,98577.73
2018-08-04T03:06:01.026Z,98573.76
2018-08-04T03:08:29.443Z,98573.63
2018-08-04T03:10:57.589Z,98580.90
2018-08-04T03:13:25.932Z,98578.67
2018-08-04T03:15:54.143Z,98574.08
2018-08-04T03:18:22.552Z,98578.09
2018-08-04T03:20:50.775Z,98571.72
2018-08-04T03:23:18.973Z,98577.01
2018-08-04T03:25:47.301Z,98575.91
2018-08-04T03:28:15.647Z,98574.13
2018-08-04T03:30:44.163Z,98581.14
2018-08-04T03:33:12.290Z,98583.25
2018-08-04T03:35:40.652Z,98591.91
2018-08-04T03:38:08.815Z,98584.96
2018-08-04T03:40:37.152Z,98589.58
2018-08-04T03:43:05.302Z,98592.79
2018-08-04T03:45:33.567Z,98593.88
2018-08-04T03:48:01.715Z,98586.94
2018-08-04T03:50:29.958Z,98588.31
2018-08-04T03:52:58.091Z,98588.66
2018-08-04T03:55:26.365Z,98589.79
2018-08-04T03:57:54.719Z,98593.00
2018-08-04T04:00:22.963Z,98600.04
2018-08-04T04:02:51.227Z,98598.73
2018-08-04T04:05:20.495Z,98597.70
2018-08-04T04:07:48.911Z,98594.25
2018-08-04T04:10:17.076Z,98602.56
2018-08-04T04:12:45.653Z,98602.84
2018-08-04T04:15:13.819Z,98603.37
2018-08-04T04:17:45.867Z,98606.55
2018-08-04T04:20:14.306Z,98607.38
2018-08-04T04:22:42.566Z,98604.43
2018-08-04T04:25:10.896Z,98609.31
2018-08-04T04:27:39.048Z,98613.61
2018-08-04T04:30:07.480Z,98614.16
2018-08-04T04:32:35.684Z,98612.77
2018-08-04T04:35:04.587Z,98608.78
2018-08-04T04:37:32.903Z,98613.86
2018-08-04T04:40:01.428Z,98612.27
2018-08-04T04:42:29.654Z,98607.70
2018-08-04T04:44:57.899Z,98614.86
2018-08-04T04:47:26.207Z,98611.90
2018-08-04T04:49:54.348Z,98621.08
2018-08-04T04:52:23.084Z,98620.80
2018-08-04T04:54:51.820Z,98620.80
2018-08-04T04:57:20.244Z,98617.31
2018-08-04T04:59:48.535Z,98619.99
2018-08-04T05:02:16.733Z,98622.97
2018-08-04T05:04:44.932Z,98624.56
2018-08-04T05:07:13.119Z,98627.96
2018-08-04T05:09:41.237Z,98627.66
2018-08-04T05:12:09.657Z,98627.38
2018-08-04T05:14:37.828Z,98631.61
2018-08-04T05:17:06.009Z,98630.73
2018-08-04T05:19:34.242Z,98631.23
2018-08-04T05:22:02.659Z,98632.01
2018-08-04T05:24:31.054Z,98633.34
2018-08-04T05:26:59.331Z,98632.22
2018-08-04T05:29:27.450Z,98629.83
2018-08-04T05:31:55.698Z,98627.89
2018-08-04T05:34:23.971Z,98634.27
2018-08-04T05:36:52.216Z,98638.78
2018-08-04T05:39:20.516Z,98634.48
2018-08-04T05:41:48.739Z,98643.86
2018-08-04T05:44:17.361Z,98637.66
2018-08-04T05:46:45.587Z,98640.05
2018-08-04T05:49:14.080Z,98639.69
2018-08-04T05:51:42.248Z,98643.39
2018-08-04T05:54:10.427Z,98640.59
2018-08-04T05:56:38.706Z,98643.77
2018-08-04T05:59:08.611Z,98643.48
2018-08-04T06:01:36.754Z,98642.63
2018-08-04T06:04:05.136Z,98641.53
2018-08-04T06:06:33.340Z,98643.92
2018-08-04T06:09:01.715Z,98642.26
2018-08-04T06:11:30.064Z,98639.78
2018-08-04T06:13:58.404Z,98645.38
2018-08-04T06:16:26.708Z,98641.03
2018-08-04T06:18:55.609Z,98643.39
2018-08-04T06:21:23.739Z,98647.97
2018-08-04T06:23:51.902Z,98647.15
2018-08-04T06:26:20.250Z,98642.80
2018-08-04T06:28:48.512Z,98648.66
2018-08-04T06:31:16.844Z,98648.59
2018-08-04T06:33:45.299Z,98648.52
2018-08-04T06:36:13.774Z,98647.94
2018-08-04T06:38:42.042Z,98652.97
2018-08-04T06:41:10.509Z,98656.70
2018-08-04T06:43:38.803Z,98661.73
2018-08-04T06:46:07.196Z,98661.16
2018-08-04T06:48:35.692Z,98665.66
2018-08-04T06:51:04.051Z,98655.12
2018-08-04T06:53:32.396Z,98655.64
2018-08-04T06:56:01.092Z,98655.55
2018-08-04T06:58:29.480Z,98660.33
2018-08-04T07:00:57.699Z,98653.52
2018-08-04T07:03:25.957Z,98653.23
2018-08-04T07:05:54.495Z,98654.27
2018-08-04T07:08:22.890Z,98655.79
2018-08-04T07:10:51.141Z,98651.72
2018-08-04T07:13:19.702Z,98650.84
2018-08-04T07:15:48.203Z,98648.38
2018-08-04T07:18:16.287Z,98642.72
2018-08-04T07:20:44.701Z,98645.81
2018-08-04T07:23:12.919Z,98647.92
2018-08-04T07:25:41.397Z,98652.70
2018-08-04T07:28:09.835Z,98649.92
2018-08-04T07:30:38.054Z,98646.41
2018-08-04T07:33:07.346Z,98642.56
2018-08-04T07:35:35.810Z,98643.02
2018-08-04T07:38:04.042Z,98642.44
2018-08-04T07:40:32.378Z,98649.67
2018-08-04T07:43:00.732Z,98648.80
2018-08-04T07:45:29.204Z,98647.12
2018-08-04T07:47:57.407Z,98649.51
2018-08-04T07:50:25.892Z,98652.20
2018-08-04T07:52:54.060Z,98650.00
2018-08-04T07:55:22.483Z,98650.75
2018-08-04T07:57:50.814Z,98656.94
2018-08-04T08:00:18.944Z,98652.02
2018-08-04T08:02:47.141Z,98658.33
2018-08-04T08:05:15.372Z,98658.79
2018-08-04T08:07:43.482Z,98655.72
2018-08-04T08:10:11.740Z,98660.94
2018-08-04T08:12:39.871Z,98662.94
2018-08-04T08:15:08.795Z,98664.17
2018-08-04T08:17:37.174Z,98670.06
2018-08-04T08:20:05.420Z,98663.22
2018-08-04T08:22:37.332Z,98665.02
2018-08-04T08:25:06.090Z,98658.53
2018-08-04T08:27:34.287Z,98660.86
2018-08-04T08:30:02.546Z,98658.05
2018-08-04T08:32:31.086Z,98656.61
2018-08-04T08:34:59.717Z,98660.05
2018-08-04T08:37:27.943Z,98660.97
2018-08-04T08:39:56.763Z,98656.91
2018-08-04T08:42:25.228Z,98663.27
2018-08-04T08:44:53.741Z,98658.87
2018-08-04T08:47:21.930Z,98651.47
2018-08-04T08:49:50.107Z,98655.14
2018-08-04T08:52:18.314Z,98648.38
2018-08-04T08:54:46.610Z,98650.70
2018-08-04T08:57:14.914Z,98646.91
2018-08-04T08:59:43.080Z,98644.11
2018-08-04T09:02:11.326Z,98643.23
2018-08-04T09:04:39.456Z,98643.94
2018-08-04T09:07:07.595Z,98639.05
2018-08-04T09:09:35.938Z,98642.55
2018-08-04T09:12:04.022Z,98647.27
2018-08-04T09:14:32.148Z,98645.78
2018-08-04T09:17:00.536Z,98643.29
2018-08-04T09:19:28.751Z,98644.03
2018-08-04T09:21:57.207Z,98639.11
2018-08-04T09:24:26.022Z,98639.23
2018-08-04T09:26:54.296Z,98632.46
2018-08-04T09:29:22.808Z,98629.08
2018-08-04T09:31:51.611Z,98627.79
2018-08-04T09:34:19.974Z,98625.98
2018-08-04T09:36:48.130Z,98623.67
2018-08-04T09:39:16.362Z,98623.67
2018-08-04T09:41:44.668Z,98620.67
2018-08-04T09:44:12.864Z,98616.09
2018-08-04T09:46:41.694Z,98621.25
2018-08-04T09:49:09.797Z,98619.63
2018-08-04T09:51:38.335Z,98622.94
2018-08-04T09:54:06.443Z,98625.41
2018-08-04T09:56:34.733Z,98620.02
2018-08-04T09:59:02.962Z,98625.91
2018-08-04T10:01:38.184Z,98623.98
2018-08-04T10:04:06.938Z,98620.25
2018-08-04T10:06:35.192Z,98621.59
2018-08-04T10:09:04.816Z,98615.20
2018-08-04T10:11:33.024Z,98615.47
2018-08-04T10:14:01.283Z,98614.16
2018-08-04T10:16:29.424Z,98613.13
2018-08-04T10:18:57.607Z,98614.01
2018-08-04T10:21:25.996Z,98614.86
2018-08-04T10:23:54.299Z,98613.27
2018-08-04T10:26:22.536Z,98611.69
2018-08-04T10:28:50.635Z,98610.00
2018-08-04T10:31:18.783Z,98610.58
2018-08-04T10:33:47.044Z,98613.04
2018-08-04T10:36:15.199Z,98612.00
2018-08-04T10:38:43.465Z,98606.04
2018-08-04T10:41:12.236Z,98609.84
2018-08-04T10:43:40.380Z,98606.66
2018-08-04T10:46:08.552Z,98608.00
2018-08-04T10:48:36.676Z,98605.57
2018-08-04T10:51:05.026Z,98608.00
2018-08-04T10:53:33.262Z,98611.19
2018-08-04T10:56:01.590Z,98606.04
2018-08-04T10:58:29.791Z,98599.06
2018-08-04T11:00:57.906Z,98607.15
2018-08-04T11:03:26.184Z,98598.03
2018-08-04T11:05:56.615Z,98587.33
2018-08-04T11:08:25.067Z,98598.09
2018-08-04T11:10:53.857Z,98588.17
2018-08-04T11:13:22.010Z,98592.21
2018-08-04T11:15:50.244Z,98598.71
2018-08-04T11:18:18.428Z,98600.30
2018-08-04T11:20:47.061Z,98587.94
2018-08-04T11:23:15.818Z,98589.52
2018-08-04T11:25:44.031Z,98584.06
2018-08-04T11:28:12.508Z,98584.86
2018-08-04T11:30:41.143Z,98578.63
2018-08-04T11:33:09.352Z,98578.63
2018-08-04T11:35:37.651Z,98571.58
2018-08-04T11:38:06.037Z,98575.63
2018-08-04T11:40:34.190Z,98569.42
2018-08-04T11:43:02.390Z,98566.73
2018-08-04T11:45:31.362Z,98571.27
2018-08-04T11:47:59.442Z,98569.92
2018-08-04T11:50:27.783Z,98576.82
2018-08-04T11:52:55.923Z,98571.31
2018-08-04T11:55:24.256Z,98573.34
2018-08-04T11:57:52.370Z,98566.41
2018-08-04T12:00:20.572Z,98568.56
2018-08-04T12:02:49.039Z,98568.56
2018-08-04T12:05:17.403Z,98564.78
2018-08-04T12:07:45.707Z,98557.89
2018-08-04T12:10:13.856Z,98560.27
2018-08-04T12:12:42.195Z,98556.16
2018-08-04T12:15:10.377Z,98551.74
2018-08-04T12:17:38.516Z,98548.47
2018-08-04T12:20:06.807Z,98545.31
2018-08-04T12:22:35.359Z,98544.43
2018-08-04T12:25:03.631Z,98550.63
2018-08-04T12:27:31.898Z,98548.16
2018-08-04T12:30:00.171Z,98538.41
2018-08-04T12:32:28.274Z,98547.15
2018-08-04T12:34:56.948Z,98546.13
2018-08-04T12:37:25.236Z,98548.59
2018-08-04T12:39:53.752Z,98551.60
2018-08-04T12:42:21.847Z,98542.16
2018-08-04T12:44:50.088Z,98546.08
2018-08-04T12:47:18.223Z,98541.36
2018-08-04T12:49:47.512Z,98537.23
2018-08-04T12:52:15.767Z,98540.73
2018-08-04T12:54:44.210Z,98533.36
2018-08-04T12:57:12.415Z,98534.39
2018-08-04T12:59:40.627Z,98531.52
2018-08-04T13:02:08.854Z,98526.44
2018-08-04T13:04:38.159Z,98523.73
2018-08-04T13:07:06.552Z,98514.06
2018-08-04T13:09:34.690Z,98517.30
2018-08-04T13:12:03.004Z,98516.50
2018-08-04T13:14:31.080Z,98513.86
2018-08-04T13:16:59.539Z,98513.09
2018-08-04T13:19:28.055Z,98512.59
2018-08-04T13:21:56.426Z,98515.37
2018-08-04T13:24:24.608Z,98514.80
2018-08-04T13:26:53.059Z,98509.48
2018-08-04T13:29:21.845Z,98511.70
2018-08-04T13:31:50.041Z,98504.17
2018-08-04T13:34:18.551Z,98509.70
2018-08-04T13:36:47.513Z,98518.53
2018-08-04T13:39:15.792Z,98510.58
2018-08-04T13:41:44.057Z,98507.02
2018-08-04T13:44:12.653Z,98504.32
2018-08-04T13:46:41.243Z,98501.53
2018-08-04T13:49:10.003Z,98499.33
2018-08-04T13:51:38.733Z,98493.92
2018-08-04T13:54:07.688Z,98492.58
2018-08-04T13:56:35.948Z,98493.67
2018-08-04T13:59:04.192Z,98494.07
2018-08-04T14:01:32.957Z,98494.07
2018-08-04T14:04:01.190Z,98490.25
2018-08-04T14:06:29.813Z,98489.25
2018-08-04T14:08:57.946Z,98485.75
2018-08-04T14:11:26.469Z,98486.55
2018-08-04T14:13:56.529Z,98499.01
2018-08-04T14:16:26.002Z,98499.01
2018-08-04T14:18:54.436Z,98503.05
2018-08-04T14:21:22.783Z,98496.77
2018-08-04T14:23:51.350Z,98496.68
2018-08-04T14:26:19.707Z,98500.67
2018-08-04T14:28:47.976Z,98502.48
2018-08-04T14:31:16.177Z,98497.40
2018-08-04T14:33:44.651Z,98507.87
2018-08-04T14:36:13.418Z,98502.48
2018-08-04T14:38:41.527Z,98499.01
2018-08-04T14:41:10.147Z,98498.12
2018-08-04T14:43:38.890Z,98492.17
2018-08-04T14:46:07.754Z,98495.51
2018-08-04T14:48:36.225Z,98490.34
2018-08-04T14:51:04.632Z,98491.63
2018-08-04T14:53:32.899Z,98487.27
2018-08-04T14:56:01.543Z,98480.17
2018-08-04T14:58:29.867Z,98475.80
2018-08-04T15:00:58.171Z,98477.64
2018-08-04T15:03:26.674Z,98476.30
2018-08-04T15:05:54.908Z,98482.49
2018-08-04T15:08:23.110Z,98483.27
2018-08-04T15:10:51.367Z,98479.54
2018-08-04T15:13:19.655Z,98474.63
2018-08-04T15:15:48.324Z,98465.66
2018-08-04T15:18:16.793Z,98467.34
2018-08-04T15:20:45.144Z,98468.20
2018-08-04T15:23:13.872Z,98461.86
2018-08-04T15:25:42.384Z,98460.66
2018-08-04T15:28:10.909Z,98459.30
2018-08-04T15:30:40.321Z,98462.27
2018-08-04T15:33:08.916Z,98452.81
2018-08-04T15:35:37.738Z,98460.42
2018-08-04T15:38:05.944Z,98452.96
2018-08-04T15:40:34.203Z,98459.70
2018-08-04T15:43:13.604Z,98457.23
2018-08-04T15:45:47.156Z,98453.99
2018-08-04T15:48:17.341Z,98456.15
2018-08-04T15:50:48.099Z,98457.95
2018-08-04T15:53:18.331Z,98458.21
2018-08-04T15:55:46.893Z,98455.52
2018-08-04T16:01:16.138Z,98451.20
2018-08-04T16:03:45.260Z,98459.16
2018-08-04T16:06:15.873Z,98458.05
2018-08-04T16:08:47.362Z,98455.34
2018-08-04T16:11:40.071Z,98459.16
2018-08-04T16:14:22.780Z,98462.50
2018-08-04T16:16:51.707Z,98468.44
2018-08-04T16:19:21.452Z,98457.09
2018-08-04T16:21:49.627Z,98477.25
2018-08-04T16:24:17.926Z,98475.58
2018-08-04T16:26:51.799Z,98469.38
2018-08-04T16:29:20.191Z,98477.73
2018-08-04T16:31:48.700Z,98483.36
2018-08-04T16:34:16.901Z,98483.36
2018-08-04T16:36:45.408Z,98482.33
2018-08-04T16:39:13.927Z,98479.95
2018-08-04T16:41:42.280Z,98482.64
2018-08-04T16:44:10.753Z,98478.83
2018-08-04T16:46:39.108Z,98483.13
2018-08-04T16:49:07.355Z,98480.89
2018-08-04T16:51:37.412Z,98485.52
2018-08-04T16:54:06.124Z,98492.17
2018-08-04T16:56:34.727Z,98479.23
2018-08-04T16:59:02.959Z,98477.56
2018-08-04T17:01:31.291Z,98475.98
2018-08-04T17:03:59.581Z,98485.20
2018-08-04T17:06:27.843Z,98486.23
2018-08-04T17:08:56.391Z,98485.11
2018-08-04T17:11:24.603Z,98487.27
2018-08-04T17:13:53.164Z,98493.44
2018-08-04T17:16:22.190Z,98497.97
2018-08-04T17:18:50.405Z,98500.09
2018-08-04T17:21:19.087Z,98497.40
2018-08-04T17:23:47.369Z,98505.98
2018-08-04T17:26:15.640Z,98504.55
2018-08-04T17:28:44.101Z,98508.28
2018-08-04T17:31:12.349Z,98512.81
2018-08-04T17:33:40.691Z,98516.23
2018-08-04T17:36:08.860Z,98520.51
2018-08-04T17:38:37.149Z,98520.73
2018-08-04T17:41:05.562Z,98522.57
2018-08-04T17:43:34.528Z,98526.62
2018-08-04T17:46:02.811Z,98523.61
2018-08-04T17:48:31.269Z,98520.10
2018-08-04T17:50:59.467Z,98526.30
2018-08-04T17:53:28.472Z,98522.25
2018-08-04T17:55:57.020Z,98522.89
2018-08-04T17:58:25.687Z,98530.98
2018-08-04T18:00:53.921Z,98525.36
2018-08-04T18:03:22.152Z,98524.33
2018-08-04T18:05:50.844Z,98528.38
2018-08-04T18:08:19.230Z,98528.11
2018-08-04T18:10:48.131Z,98529.47
2018-08-04T18:13:17.763Z,98533.06
2018-08-04T18:15:45.951Z,98534.41
2018-08-04T18:18:15.576Z,98532.83
2018-08-04T18:20:45.663Z,98532.57
2018-08-04T18:23:13.828Z,98537.97
2018-08-04T18:25:42.437Z,98533.92
2018-08-04T18:28:11.245Z,98535.27
2018-08-04T18:30:39.424Z,98536.94
2018-08-04T18:33:08.079Z,98541.56
2018-08-04T18:35:36.280Z,98537.56
2018-08-04T18:38:04.834Z,98534.09
2018-08-04T18:40:33.107Z,98530.91
2018-08-04T18:43:01.213Z,98529.55
2018-08-04T18:45:29.426Z,98532.74
2018-08-04T18:47:58.046Z,98531.70
2018-08-04T18:50:26.486Z,98531.70
2018-08-04T18:52:54.863Z,98528.20
2018-08-04T18:55:23.184Z,98531.22
2018-08-04T18:57:52.096Z,98531.63
2018-08-04T19:00:22.176Z,98537.02
2018-08-04T19:02:50.739Z,98540.27
2018-08-04T19:05:19.107Z,98542.50
2018-08-04T19:07:47.545Z,98544.70
2018-08-04T19:10:15.940Z,98546.45
2018-08-04T19:12:44.165Z,98547.31
2018-08-04T19:15:12.738Z,98555.18
2018-08-04T19:17:40.970Z,98554.06
2018-08-04T19:20:09.237Z,98554.06
2018-08-04T19:22:37.621Z,98547.58
2018-08-04T19:25:06.591Z,98556.12
2018-08-04T19:27:34.867Z,98551.23
2018-08-04T19:30:03.682Z,98552.80
2018-08-04T19:32:32.199Z,98551.54
2018-08-04T19:35:00.673Z,98553.66
2018-08-04T19:37:28.913Z,98560.18
2018-08-04T19:39:57.322Z,98557.71
2018-08-04T19:42:26.341Z,98557.71
2018-08-04T19:44:54.766Z,98560.90
2018-08-04T19:47:23.083Z,98562.02
2018-08-04T19:49:52.526Z,98563.37
2018-08-04T19:52:20.901Z,98567.41
2018-08-04T19:54:50.178Z,98568.19
2018-08-04T19:57:18.697Z,98566.30
2018-08-04T19:59:47.127Z,98563.59
2018-08-04T20:02:15.697Z,98561.13
2018-08-04T20:04:45.786Z,98560.90
2018-08-04T20:07:21.432Z,98562.74
2018-08-04T20:09:50.444Z,98571.06
2018-08-04T20:12:18.754Z,98577.27
2018-08-04T20:14:47.022Z,98579.97
2018-08-04T20:17:15.713Z,98578.94
2018-08-04T20:19:43.907Z,98577.01
2018-08-04T20:22:13.980Z,98584.02
2018-08-04T20:24:42.396Z,98581.31
2018-08-04T20:27:10.600Z,98575.65
2018-08-04T20:29:38.786Z,98577.69
2018-08-04T20:32:07.516Z,98584.38
2018-08-04T20:34:36.403Z,98575.80
2018-08-04T20:37:04.732Z,98574.92
2018-08-04T20:39:33.151Z,98574.59
2018-08-04T20:42:01.610Z,98579.72
2018-08-04T20:44:30.150Z,98580.83
2018-08-04T20:46:58.388Z,98581.41
2018-08-04T20:49:26.660Z,98580.42
2018-08-04T20:51:55.162Z,98576.53
2018-08-04T20:54:23.324Z,98580.08
2018-08-04T20:56:51.768Z,98580.23
2018-08-04T20:59:19.914Z,98581.00
2018-08-04T21:01:56.855Z,98581.89
2018-08-04T21:04:25.122Z,98577.89
2018-08-04T21:06:53.419Z,98574.19
2018-08-04T21:09:22.303Z,98574.80
2018-08-04T21:11:52.656Z,98568.06
2018-08-04T21:14:22.141Z,98572.23
2018-08-04T21:16:51.143Z,98567.23
2018-08-04T21:19:20.641Z,98565.04
2018-08-04T21:21:48.946Z,98566.96
2018-08-04T21:24:18.198Z,98569.16
2018-08-04T21:26:46.529Z,98574.36
2018-08-04T21:29:14.944Z,98571.27
2018-08-04T21:31:43.231Z,98571.93
2018-08-04T21:34:12.201Z,98570.19
2018-08-04T21:36:40.595Z,98577.27
2018-08-04T21:39:11.584Z,98582.00
2018-08-04T21:41:39.827Z,98576.19
2018-08-04T21:44:07.986Z,98583.19
2018-08-04T21:46:41.288Z,98578.72
2018-08-04T21:49:09.775Z,98580.10
2018-08-04T21:51:38.232Z,98582.56
2018-08-04T21:54:06.330Z,98581.83
2018-08-04T21:56:34.527Z,98586.74
2018-08-04T21:59:02.775Z,98590.28
2018-08-04T22:01:31.317Z,98587.96
2018-08-04T22:03:59.575Z,98587.30
2018-08-04T22:06:54.895Z,98591.64
2018-08-04T22:09:24.708Z,98597.09
2018-08-04T22:11:52.880Z,98606.28
2018-08-04T22:14:21.478Z,98622.97
2018-08-04T22:16:49.696Z,98612.95
2018-08-04T22:19:18.046Z,98612.61
2018-08-04T22:21:46.240Z,98608.09
2018-08-04T22:24:14.524Z,98614.52
2018-08-04T22:26:42.694Z,98602.47
2018-08-04T22:29:10.972Z,98608.09
2018-08-04T22:31:39.316Z,98604.53
2018-08-04T22:34:07.872Z,98600.19
2018-08-04T22:36:36.070Z,98603.69
2018-08-04T22:39:05.425Z,98601.23
2018-08-04T22:41:33.821Z,98598.07
2018-08-04T22:44:01.955Z,98597.77
2018-08-04T22:46:30.298Z,98594.81
2018-08-04T22:48:58.477Z,98593.77
2018-08-04T22:51:28.151Z,98591.58
2018-08-04T22:53:57.403Z,98589.73
2018-08-04T22:56:26.039Z,98595.68
2018-08-04T22:58:54.506Z,98588.95
2018-08-04T23:01:29.380Z,98590.60
2018-08-04T23:03:57.926Z,98587.17
2018-08-04T23:06:26.072Z,98587.77
2018-08-04T23:08:54.283Z,98590.23
2018-08-04T23:11:22.813Z,98589.12
2018-08-04T23:13:51.635Z,98591.81
2018-08-04T23:16:20.311Z,98595.04
2018-08-04T23:18:48.870Z,98595.61
2018-08-04T23:21:17.358Z,98597.56
2018-08-04T23:23:45.929Z,98600.02
2018-08-04T23:26:15.195Z,98606.59
2018-08-04T23:28:43.708Z,98608.18
2018-08-04T23:31:12.859Z,98607.88
2018-08-04T23:33:41.407Z,98606.59
2018-08-04T23:36:09.691Z,98611.47
2018-08-04T23:38:37.963Z,98612.08
2018-08-04T23:41:06.419Z,98612.88
2018-08-04T23:43:34.635Z,98611.84
2018-08-04T23:46:02.860Z,98606.99
2018-08-04T23:48:31.145Z,98610.59
2018-08-04T23:51:00.164Z,98604.48
2018-08-04T23:53:28.428Z,98605.98
2018-08-04T23:55:57.253Z,98598.79
2018-08-04T23:58:25.659Z,98599.45
